sensor_id;sensor_type;location;lat;lon;timestamp;temperature;humidity
68719;DHT22;55696;52.138;5.444;2023-05-10T00:00:59;16.90;72.80
68719;DHT22;55696;52.138;5.444;2023-05-10T00:03:26;16.80;72.00
68719;DHT22;55696;52.138;5.444;2023-05-10T00:05:53;16.80;72.00
68719;DHT22;55696;52.138;5.444;2023-05-10T00:08:20;16.80;72.00
68719;DHT22;55696;52.138;5.444;2023-05-10T00:10:46;16.90;72.10
68719;DHT22;55696;52.138;5.444;2023-05-10T00:13:13;16.90;72.10
68719;DHT22;55696;52.138;5.444;2023-05-10T00:15:40;16.80;72.20
68719;DHT22;55696;52.138;5.444;2023-05-10T00:18:07;16.90;73.00
68719;DHT22;55696;52.138;5.444;2023-05-10T00:20:34;16.80;72.20
68719;DHT22;55696;52.138;5.444;2023-05-10T00:23:00;16.90;72.10
68719;DHT22;55696;52.138;5.444;2023-05-10T00:25:27;16.90;72.10
68719;DHT22;55696;52.138;5.444;2023-05-10T00:27:54;17.40;72.40
68719;DHT22;55696;52.138;5.444;2023-05-10T00:30:23;16.90;72.10
68719;DHT22;55696;52.138;5.444;2023-05-10T00:32:50;17.00;72.10
68719;DHT22;55696;52.138;5.444;2023-05-10T00:35:18;16.90;72.00
68719;DHT22;55696;52.138;5.444;2023-05-10T00:37:45;17.00;72.00
68719;DHT22;55696;52.138;5.444;2023-05-10T00:40:12;17.00;72.00
68719;DHT22;55696;52.138;5.444;2023-05-10T00:42:40;17.00;73.00
68719;DHT22;55696;52.138;5.444;2023-05-10T00:45:07;16.80;72.00
68719;DHT22;55696;52.138;5.444;2023-05-10T00:47:35;17.00;72.20
68719;DHT22;55696;52.138;5.444;2023-05-10T00:50:02;17.10;72.30
68719;DHT22;55696;52.138;5.444;2023-05-10T00:52:29;17.00;72.20
68719;DHT22;55696;52.138;5.444;2023-05-10T00:54:57;17.00;72.40
68719;DHT22;55696;52.138;5.444;2023-05-10T00:57:24;17.70;72.60
68719;DHT22;55696;52.138;5.444;2023-05-10T00:59:51;17.00;72.30
68719;DHT22;55696;52.138;5.444;2023-05-10T01:02:18;17.00;72.30
68719;DHT22;55696;52.138;5.444;2023-05-10T01:04:45;16.90;72.20
68719;DHT22;55696;52.138;5.444;2023-05-10T01:07:12;17.00;72.00
68719;DHT22;55696;52.138;5.444;2023-05-10T01:09:39;17.00;71.80
68719;DHT22;55696;52.138;5.444;2023-05-10T01:12:06;17.10;72.00
68719;DHT22;55696;52.138;5.444;2023-05-10T01:14:34;17.00;71.90
68719;DHT22;55696;52.138;5.444;2023-05-10T01:17:04;17.10;72.30
68719;DHT22;55696;52.138;5.444;2023-05-10T01:19:31;17.10;72.50
68719;DHT22;55696;52.138;5.444;2023-05-10T01:24:56;17.10;73.20
68719;DHT22;55696;52.138;5.444;2023-05-10T01:27:53;17.10;73.00
68719;DHT22;55696;52.138;5.444;2023-05-10T01:38:32;17.00;73.10
68719;DHT22;55696;52.138;5.444;2023-05-10T01:41:20;16.90;72.00
68719;DHT22;55696;52.138;5.444;2023-05-10T01:46:35;16.80;73.70
68719;DHT22;55696;52.138;5.444;2023-05-10T01:49:09;17.00;73.30
68719;DHT22;55696;52.138;5.444;2023-05-10T01:51:45;16.90;72.80
68719;DHT22;55696;52.138;5.444;2023-05-10T01:54:14;16.90;73.60
68719;DHT22;55696;52.138;5.444;2023-05-10T01:56:44;16.80;72.60
68719;DHT22;55696;52.138;5.444;2023-05-10T01:59:15;16.90;72.70
68719;DHT22;55696;52.138;5.444;2023-05-10T02:01:45;16.90;72.90
68719;DHT22;55696;52.138;5.444;2023-05-10T02:04:15;17.90;73.40
68719;DHT22;55696;52.138;5.444;2023-05-10T02:06:45;16.90;73.00
68719;DHT22;55696;52.138;5.444;2023-05-10T02:09:15;17.00;72.70
68719;DHT22;55696;52.138;5.444;2023-05-10T02:11:43;17.00;72.50
68719;DHT22;55696;52.138;5.444;2023-05-10T02:14:11;17.50;72.80
68719;DHT22;55696;52.138;5.444;2023-05-10T02:16:39;16.80;72.00
68719;DHT22;55696;52.138;5.444;2023-05-10T02:19:07;17.10;72.50
68719;DHT22;55696;52.138;5.444;2023-05-10T02:21:35;16.90;72.30
68719;DHT22;55696;52.138;5.444;2023-05-10T02:24:04;16.80;72.20
68719;DHT22;55696;52.138;5.444;2023-05-10T02:26:33;17.00;73.40
68719;DHT22;55696;52.138;5.444;2023-05-10T02:29:02;16.80;72.80
68719;DHT22;55696;52.138;5.444;2023-05-10T02:31:32;16.80;72.70
68719;DHT22;55696;52.138;5.444;2023-05-10T02:34:00;16.80;72.90
68719;DHT22;55696;52.138;5.444;2023-05-10T02:36:28;16.90;72.80
68719;DHT22;55696;52.138;5.444;2023-05-10T02:38:56;17.00;72.60
68719;DHT22;55696;52.138;5.444;2023-05-10T02:41:25;16.80;72.30
68719;DHT22;55696;52.138;5.444;2023-05-10T02:43:56;16.90;72.60
68719;DHT22;55696;52.138;5.444;2023-05-10T02:46:23;16.90;73.00
68719;DHT22;55696;52.138;5.444;2023-05-10T02:48:50;16.90;71.90
68719;DHT22;55696;52.138;5.444;2023-05-10T02:51:18;17.70;72.20
68719;DHT22;55696;52.138;5.444;2023-05-10T02:53:46;16.90;72.30
68719;DHT22;55696;52.138;5.444;2023-05-10T02:56:23;17.80;72.60
68719;DHT22;55696;52.138;5.444;2023-05-10T02:58:52;17.00;72.70
68719;DHT22;55696;52.138;5.444;2023-05-10T03:01:19;16.90;71.90
68719;DHT22;55696;52.138;5.444;2023-05-10T03:03:45;16.90;71.60
68719;DHT22;55696;52.138;5.444;2023-05-10T03:06:12;17.60;72.10
68719;DHT22;55696;52.138;5.444;2023-05-10T03:08:39;16.70;71.70
68719;DHT22;55696;52.138;5.444;2023-05-10T03:11:37;17.40;72.30
68719;DHT22;55696;52.138;5.444;2023-05-10T03:17:00;16.70;71.80
68719;DHT22;55696;52.138;5.444;2023-05-10T03:19:53;16.50;73.40
68719;DHT22;55696;52.138;5.444;2023-05-10T03:22:26;16.50;73.30
68719;DHT22;55696;52.138;5.444;2023-05-10T03:24:56;17.10;74.00
68719;DHT22;55696;52.138;5.444;2023-05-10T03:27:27;16.30;72.70
68719;DHT22;55696;52.138;5.444;2023-05-10T03:29:55;16.20;72.90
68719;DHT22;55696;52.138;5.444;2023-05-10T03:32:23;16.20;73.10
68719;DHT22;55696;52.138;5.444;2023-05-10T03:34:50;16.30;72.80
68719;DHT22;55696;52.138;5.444;2023-05-10T03:37:16;16.20;72.80
68719;DHT22;55696;52.138;5.444;2023-05-10T03:39:43;17.10;73.20
68719;DHT22;55696;52.138;5.444;2023-05-10T03:42:10;16.20;72.90
68719;DHT22;55696;52.138;5.444;2023-05-10T03:44:39;16.30;73.00
68719;DHT22;55696;52.138;5.444;2023-05-10T03:47:06;16.70;73.80
68719;DHT22;55696;52.138;5.444;2023-05-10T03:49:33;16.40;72.90
68719;DHT22;55696;52.138;5.444;2023-05-10T03:52:00;16.20;72.70
68719;DHT22;55696;52.138;5.444;2023-05-10T03:54:27;16.40;72.90
68719;DHT22;55696;52.138;5.444;2023-05-10T03:56:54;16.30;72.60
68719;DHT22;55696;52.138;5.444;2023-05-10T03:59:21;16.40;72.50
68719;DHT22;55696;52.138;5.444;2023-05-10T04:01:50;16.40;72.60
68719;DHT22;55696;52.138;5.444;2023-05-10T04:04:17;16.30;72.40
68719;DHT22;55696;52.138;5.444;2023-05-10T04:06:47;16.40;72.40
68719;DHT22;55696;52.138;5.444;2023-05-10T04:09:14;16.40;72.40
68719;DHT22;55696;52.138;5.444;2023-05-10T04:11:41;16.70;72.70
68719;DHT22;55696;52.138;5.444;2023-05-10T04:14:08;16.40;72.50
68719;DHT22;55696;52.138;5.444;2023-05-10T04:16:35;16.40;72.70
68719;DHT22;55696;52.138;5.444;2023-05-10T04:19:02;16.30;72.50
68719;DHT22;55696;52.138;5.444;2023-05-10T04:21:29;16.30;72.60
68719;DHT22;55696;52.138;5.444;2023-05-10T04:23:56;16.40;72.60
68719;DHT22;55696;52.138;5.444;2023-05-10T04:26:23;16.10;72.40
68719;DHT22;55696;52.138;5.444;2023-05-10T04:28:51;16.40;72.60
68719;DHT22;55696;52.138;5.444;2023-05-10T04:31:18;16.40;72.60
68719;DHT22;55696;52.138;5.444;2023-05-10T04:33:45;16.40;72.50
68719;DHT22;55696;52.138;5.444;2023-05-10T04:36:12;16.40;72.50
68719;DHT22;55696;52.138;5.444;2023-05-10T04:38:38;16.30;72.50
68719;DHT22;55696;52.138;5.444;2023-05-10T04:41:09;16.40;72.70
68719;DHT22;55696;52.138;5.444;2023-05-10T04:43:36;16.50;73.10
68719;DHT22;55696;52.138;5.444;2023-05-10T04:46:04;16.40;73.00
68719;DHT22;55696;52.138;5.444;2023-05-10T04:48:31;16.50;73.00
68719;DHT22;55696;52.138;5.444;2023-05-10T04:50:58;16.40;72.70
68719;DHT22;55696;52.138;5.444;2023-05-10T04:53:25;16.40;72.50
68719;DHT22;55696;52.138;5.444;2023-05-10T04:55:51;16.30;72.40
68719;DHT22;55696;52.138;5.444;2023-05-10T04:58:18;16.40;72.60
68719;DHT22;55696;52.138;5.444;2023-05-10T05:00:45;16.40;72.70
68719;DHT22;55696;52.138;5.444;2023-05-10T05:03:12;16.30;72.70
68719;DHT22;55696;52.138;5.444;2023-05-10T05:05:39;17.00;73.20
68719;DHT22;55696;52.138;5.444;2023-05-10T05:08:05;16.50;72.70
68719;DHT22;55696;52.138;5.444;2023-05-10T05:10:32;16.40;73.00
68719;DHT22;55696;52.138;5.444;2023-05-10T05:12:59;16.60;72.70
68719;DHT22;55696;52.138;5.444;2023-05-10T05:15:26;16.60;72.40
68719;DHT22;55696;52.138;5.444;2023-05-10T05:17:53;16.60;72.50
68719;DHT22;55696;52.138;5.444;2023-05-10T05:20:20;16.50;72.60
68719;DHT22;55696;52.138;5.444;2023-05-10T05:22:46;16.60;72.50
68719;DHT22;55696;52.138;5.444;2023-05-10T05:25:13;16.50;72.50
68719;DHT22;55696;52.138;5.444;2023-05-10T05:27:41;16.70;72.40
68719;DHT22;55696;52.138;5.444;2023-05-10T05:30:08;16.50;72.30
68719;DHT22;55696;52.138;5.444;2023-05-10T05:32:35;16.60;72.60
68719;DHT22;55696;52.138;5.444;2023-05-10T05:35:02;17.00;72.60
68719;DHT22;55696;52.138;5.444;2023-05-10T05:37:29;16.70;72.50
68719;DHT22;55696;52.138;5.444;2023-05-10T05:39:56;17.30;73.00
68719;DHT22;55696;52.138;5.444;2023-05-10T05:42:22;16.70;72.50
68719;DHT22;55696;52.138;5.444;2023-05-10T05:44:49;16.70;72.40
68719;DHT22;55696;52.138;5.444;2023-05-10T05:47:16;16.60;72.00
68719;DHT22;55696;52.138;5.444;2023-05-10T05:49:43;16.60;72.10
68719;DHT22;55696;52.138;5.444;2023-05-10T05:52:12;16.60;72.20
68719;DHT22;55696;52.138;5.444;2023-05-10T05:54:39;16.70;72.10
68719;DHT22;55696;52.138;5.444;2023-05-10T05:57:06;17.10;72.40
68719;DHT22;55696;52.138;5.444;2023-05-10T05:59:33;17.60;72.70
68719;DHT22;55696;52.138;5.444;2023-05-10T06:02:00;16.70;72.00
68719;DHT22;55696;52.138;5.444;2023-05-10T06:04:27;16.60;72.10
68719;DHT22;55696;52.138;5.444;2023-05-10T06:06:54;16.50;71.90
68719;DHT22;55696;52.138;5.444;2023-05-10T06:09:21;16.50;71.80
68719;DHT22;55696;52.138;5.444;2023-05-10T06:11:50;16.40;71.90
68719;DHT22;55696;52.138;5.444;2023-05-10T06:14:16;16.40;71.90
68719;DHT22;55696;52.138;5.444;2023-05-10T06:16:43;16.40;71.80
68719;DHT22;55696;52.138;5.444;2023-05-10T06:19:10;16.50;71.70
68719;DHT22;55696;52.138;5.444;2023-05-10T06:21:37;16.80;71.80
68719;DHT22;55696;52.138;5.444;2023-05-10T06:24:04;16.60;71.60
68719;DHT22;55696;52.138;5.444;2023-05-10T06:26:33;16.60;71.40
68719;DHT22;55696;52.138;5.444;2023-05-10T06:28:59;16.60;71.60
68719;DHT22;55696;52.138;5.444;2023-05-10T06:31:26;16.40;72.00
68719;DHT22;55696;52.138;5.444;2023-05-10T06:33:53;16.40;71.60
68719;DHT22;55696;52.138;5.444;2023-05-10T06:36:22;16.30;71.60
68719;DHT22;55696;52.138;5.444;2023-05-10T06:38:51;16.50;71.70
68719;DHT22;55696;52.138;5.444;2023-05-10T06:41:17;16.40;71.70
68719;DHT22;55696;52.138;5.444;2023-05-10T06:43:44;16.50;71.60
68719;DHT22;55696;52.138;5.444;2023-05-10T06:46:11;16.70;71.50
68719;DHT22;55696;52.138;5.444;2023-05-10T06:48:38;16.60;72.10
68719;DHT22;55696;52.138;5.444;2023-05-10T06:51:04;16.60;70.90
68719;DHT22;55696;52.138;5.444;2023-05-10T06:53:31;16.70;70.90
68719;DHT22;55696;52.138;5.444;2023-05-10T06:55:58;17.30;71.10
68719;DHT22;55696;52.138;5.444;2023-05-10T06:58:25;16.50;70.70
68719;DHT22;55696;52.138;5.444;2023-05-10T07:00:51;16.60;70.70
68719;DHT22;55696;52.138;5.444;2023-05-10T07:03:18;16.60;70.60
68719;DHT22;55696;52.138;5.444;2023-05-10T07:05:45;17.00;70.50
68719;DHT22;55696;52.138;5.444;2023-05-10T07:08:15;17.30;70.40
68719;DHT22;55696;52.138;5.444;2023-05-10T07:10:41;16.70;71.20
68719;DHT22;55696;52.138;5.444;2023-05-10T07:13:08;16.80;70.10
68719;DHT22;55696;52.138;5.444;2023-05-10T07:15:36;16.80;69.70
68719;DHT22;55696;52.138;5.444;2023-05-10T07:18:03;16.80;69.50
68719;DHT22;55696;52.138;5.444;2023-05-10T07:20:31;16.90;69.40
68719;DHT22;55696;52.138;5.444;2023-05-10T07:22:57;16.80;69.00
68719;DHT22;55696;52.138;5.444;2023-05-10T07:25:24;16.90;69.10
68719;DHT22;55696;52.138;5.444;2023-05-10T07:27:51;16.80;69.00
68719;DHT22;55696;52.138;5.444;2023-05-10T07:30:18;16.80;69.00
68719;DHT22;55696;52.138;5.444;2023-05-10T07:32:45;16.80;69.00
68719;DHT22;55696;52.138;5.444;2023-05-10T07:35:11;16.80;68.90
68719;DHT22;55696;52.138;5.444;2023-05-10T07:37:38;16.90;69.00
68719;DHT22;55696;52.138;5.444;2023-05-10T07:40:05;17.60;69.20
68719;DHT22;55696;52.138;5.444;2023-05-10T07:42:32;17.00;68.80
68719;DHT22;55696;52.138;5.444;2023-05-10T07:44:59;16.90;68.50
68719;DHT22;55696;52.138;5.444;2023-05-10T07:47:26;17.00;68.50
68719;DHT22;55696;52.138;5.444;2023-05-10T07:49:53;17.20;68.10
68719;DHT22;55696;52.138;5.444;2023-05-10T07:52:19;17.70;67.80
68719;DHT22;55696;52.138;5.444;2023-05-10T07:54:48;17.20;67.40
68719;DHT22;55696;52.138;5.444;2023-05-10T07:57:15;17.30;67.30
68719;DHT22;55696;52.138;5.444;2023-05-10T07:59:44;17.40;67.40
68719;DHT22;55696;52.138;5.444;2023-05-10T08:02:11;17.40;67.10
68719;DHT22;55696;52.138;5.444;2023-05-10T08:04:38;17.60;66.90
68719;DHT22;55696;52.138;5.444;2023-05-10T08:07:05;17.70;66.50
68719;DHT22;55696;52.138;5.444;2023-05-10T08:09:32;17.60;66.10
68719;DHT22;55696;52.138;5.444;2023-05-10T08:11:58;18.40;66.50
68719;DHT22;55696;52.138;5.444;2023-05-10T08:14:28;17.50;66.00
68719;DHT22;55696;52.138;5.444;2023-05-10T08:16:55;17.80;67.20
68719;DHT22;55696;52.138;5.444;2023-05-10T08:19:22;17.40;66.40
68719;DHT22;55696;52.138;5.444;2023-05-10T08:21:50;17.50;66.30
68719;DHT22;55696;52.138;5.444;2023-05-10T08:24:17;17.40;66.30
68719;DHT22;55696;52.138;5.444;2023-05-10T08:26:44;17.50;66.10
68719;DHT22;55696;52.138;5.444;2023-05-10T08:29:10;17.50;66.00
68719;DHT22;55696;52.138;5.444;2023-05-10T08:31:37;17.70;66.00
68719;DHT22;55696;52.138;5.444;2023-05-10T08:34:04;17.50;65.80
68719;DHT22;55696;52.138;5.444;2023-05-10T08:36:31;17.70;65.80
68719;DHT22;55696;52.138;5.444;2023-05-10T08:38:58;17.60;65.90
68719;DHT22;55696;52.138;5.444;2023-05-10T08:41:25;17.50;66.70
68719;DHT22;55696;52.138;5.444;2023-05-10T08:43:53;17.60;65.50
68719;DHT22;55696;52.138;5.444;2023-05-10T08:46:21;17.50;65.80
68719;DHT22;55696;52.138;5.444;2023-05-10T08:48:50;17.40;66.20
68719;DHT22;55696;52.138;5.444;2023-05-10T08:51:19;17.50;66.30
68719;DHT22;55696;52.138;5.444;2023-05-10T08:53:47;17.50;66.20
68719;DHT22;55696;52.138;5.444;2023-05-10T08:56:16;17.40;65.50
68719;DHT22;55696;52.138;5.444;2023-05-10T08:58:44;17.40;65.90
68719;DHT22;55696;52.138;5.444;2023-05-10T09:01:12;17.40;65.50
68719;DHT22;55696;52.138;5.444;2023-05-10T09:03:40;17.40;66.20
68719;DHT22;55696;52.138;5.444;2023-05-10T09:06:07;17.50;65.40
68719;DHT22;55696;52.138;5.444;2023-05-10T09:08:34;17.50;65.40
68719;DHT22;55696;52.138;5.444;2023-05-10T09:11:02;18.10;65.10
68719;DHT22;55696;52.138;5.444;2023-05-10T09:13:30;18.30;64.30
68719;DHT22;55696;52.138;5.444;2023-05-10T09:15:57;18.50;63.40
68719;DHT22;55696;52.138;5.444;2023-05-10T09:18:32;18.50;62.60
68719;DHT22;55696;52.138;5.444;2023-05-10T09:20:59;18.60;62.40
68719;DHT22;55696;52.138;5.444;2023-05-10T09:23:26;18.50;62.50
68719;DHT22;55696;52.138;5.444;2023-05-10T09:26:03;18.30;62.60
68719;DHT22;55696;52.138;5.444;2023-05-10T09:28:34;18.60;63.40
68719;DHT22;55696;52.138;5.444;2023-05-10T09:31:16;18.80;63.50
68719;DHT22;55696;52.138;5.444;2023-05-10T09:33:46;19.00;62.10
68719;DHT22;55696;52.138;5.444;2023-05-10T09:36:14;19.30;62.50
68719;DHT22;55696;52.138;5.444;2023-05-10T09:38:52;19.80;61.80
68719;DHT22;55696;52.138;5.444;2023-05-10T09:41:21;20.00;61.70
68719;DHT22;55696;52.138;5.444;2023-05-10T09:43:49;20.10;59.70
68719;DHT22;55696;52.138;5.444;2023-05-10T09:46:16;20.30;58.90
68719;DHT22;55696;52.138;5.444;2023-05-10T09:48:45;20.40;58.30
68719;DHT22;55696;52.138;5.444;2023-05-10T09:51:39;20.60;57.90
68719;DHT22;55696;52.138;5.444;2023-05-10T09:54:24;20.80;58.10
68719;DHT22;55696;52.138;5.444;2023-05-10T09:56:50;20.80;57.20
68719;DHT22;55696;52.138;5.444;2023-05-10T09:59:18;20.80;56.70
68719;DHT22;55696;52.138;5.444;2023-05-10T10:01:56;20.50;56.90
68719;DHT22;55696;52.138;5.444;2023-05-10T10:04:23;20.20;57.60
68719;DHT22;55696;52.138;5.444;2023-05-10T10:07:04;19.90;56.90
68719;DHT22;55696;52.138;5.444;2023-05-10T10:09:32;19.70;58.10
68719;DHT22;55696;52.138;5.444;2023-05-10T10:12:00;19.80;58.30
68719;DHT22;55696;52.138;5.444;2023-05-10T10:14:28;19.40;58.80
68719;DHT22;55696;52.138;5.444;2023-05-10T10:16:56;19.80;59.70
68719;DHT22;55696;52.138;5.444;2023-05-10T10:19:35;19.60;59.70
68719;DHT22;55696;52.138;5.444;2023-05-10T10:22:03;19.20;59.80
68719;DHT22;55696;52.138;5.444;2023-05-10T10:24:30;19.50;60.20
68719;DHT22;55696;52.138;5.444;2023-05-10T10:27:01;19.50;60.00
68719;DHT22;55696;52.138;5.444;2023-05-10T10:30:07;19.80;60.10
68719;DHT22;55696;52.138;5.444;2023-05-10T10:33:01;20.00;60.00
68719;DHT22;55696;52.138;5.444;2023-05-10T10:35:53;20.10;59.40
68719;DHT22;55696;52.138;5.444;2023-05-10T10:38:20;20.80;58.90
68719;DHT22;55696;52.138;5.444;2023-05-10T10:40:47;19.90;58.30
68719;DHT22;55696;52.138;5.444;2023-05-10T10:43:28;19.90;58.10
68719;DHT22;55696;52.138;5.444;2023-05-10T10:46:12;19.90;59.00
68719;DHT22;55696;52.138;5.444;2023-05-10T10:48:41;19.50;59.70
68719;DHT22;55696;52.138;5.444;2023-05-10T10:51:08;19.50;59.40
68719;DHT22;55696;52.138;5.444;2023-05-10T10:53:39;19.40;59.30
68719;DHT22;55696;52.138;5.444;2023-05-10T10:56:13;19.50;59.20
68719;DHT22;55696;52.138;5.444;2023-05-10T10:58:49;19.70;60.00
68719;DHT22;55696;52.138;5.444;2023-05-10T11:01:20;19.80;59.50
68719;DHT22;55696;52.138;5.444;2023-05-10T11:06:33;20.00;59.00
68719;DHT22;55696;52.138;5.444;2023-05-10T11:09:11;20.00;58.40
68719;DHT22;55696;52.138;5.444;2023-05-10T11:11:50;20.10;58.90
68719;DHT22;55696;52.138;5.444;2023-05-10T11:14:20;19.90;59.10
68719;DHT22;55696;52.138;5.444;2023-05-10T11:16:48;19.90;58.50
68719;DHT22;55696;52.138;5.444;2023-05-10T11:19:16;19.80;58.20
68719;DHT22;55696;52.138;5.444;2023-05-10T11:21:48;19.90;58.30
68719;DHT22;55696;52.138;5.444;2023-05-10T11:24:18;19.60;58.50
68719;DHT22;55696;52.138;5.444;2023-05-10T11:26:46;19.50;58.90
68719;DHT22;55696;52.138;5.444;2023-05-10T11:29:16;19.70;59.20
68719;DHT22;55696;52.138;5.444;2023-05-10T11:31:46;19.50;59.10
68719;DHT22;55696;52.138;5.444;2023-05-10T11:34:31;19.70;60.10
68719;DHT22;55696;52.138;5.444;2023-05-10T11:37:00;19.50;60.30
68719;DHT22;55696;52.138;5.444;2023-05-10T11:39:28;19.70;59.30
68719;DHT22;55696;52.138;5.444;2023-05-10T11:41:55;20.10;58.80
68719;DHT22;55696;52.138;5.444;2023-05-10T11:44:22;20.30;58.30
68719;DHT22;55696;52.138;5.444;2023-05-10T11:46:49;21.00;57.90
68719;DHT22;55696;52.138;5.444;2023-05-10T11:49:16;21.10;56.90
68719;DHT22;55696;52.138;5.444;2023-05-10T11:51:43;21.30;56.00
68719;DHT22;55696;52.138;5.444;2023-05-10T11:54:11;22.10;55.50
68719;DHT22;55696;52.138;5.444;2023-05-10T11:56:41;22.40;55.00
68719;DHT22;55696;52.138;5.444;2023-05-10T11:59:08;21.80;54.30
68719;DHT22;55696;52.138;5.444;2023-05-10T12:01:35;21.80;54.10
68719;DHT22;55696;52.138;5.444;2023-05-10T12:04:02;21.40;53.90
68719;DHT22;55696;52.138;5.444;2023-05-10T12:06:31;21.40;54.50
68719;DHT22;55696;52.138;5.444;2023-05-10T12:08:59;21.10;54.90
68719;DHT22;55696;52.138;5.444;2023-05-10T12:11:27;21.00;55.30
68719;DHT22;55696;52.138;5.444;2023-05-10T12:13:55;20.80;55.80
68719;DHT22;55696;52.138;5.444;2023-05-10T12:16:26;21.40;56.60
68719;DHT22;55696;52.138;5.444;2023-05-10T12:18:57;20.40;56.40
68719;DHT22;55696;52.138;5.444;2023-05-10T12:21:25;20.40;56.70
68719;DHT22;55696;52.138;5.444;2023-05-10T12:23:54;20.90;56.60
68719;DHT22;55696;52.138;5.444;2023-05-10T12:26:24;20.70;56.40
68719;DHT22;55696;52.138;5.444;2023-05-10T12:28:53;20.70;56.20
68719;DHT22;55696;52.138;5.444;2023-05-10T12:31:20;21.00;56.10
68719;DHT22;55696;52.138;5.444;2023-05-10T12:33:47;21.30;54.70
68719;DHT22;55696;52.138;5.444;2023-05-10T12:36:16;21.50;53.60
68719;DHT22;55696;52.138;5.444;2023-05-10T12:38:46;21.50;53.00
68719;DHT22;55696;52.138;5.444;2023-05-10T12:41:17;21.70;53.20
68719;DHT22;55696;52.138;5.444;2023-05-10T12:43:45;21.70;52.90
68719;DHT22;55696;52.138;5.444;2023-05-10T12:46:16;22.00;52.70
68719;DHT22;55696;52.138;5.444;2023-05-10T12:48:44;22.00;52.10
68719;DHT22;55696;52.138;5.444;2023-05-10T12:51:12;22.30;52.00
68719;DHT22;55696;52.138;5.444;2023-05-10T12:53:42;22.60;51.60
68719;DHT22;55696;52.138;5.444;2023-05-10T12:56:12;22.50;51.20
68719;DHT22;55696;52.138;5.444;2023-05-10T12:58:39;22.50;51.10
68719;DHT22;55696;52.138;5.444;2023-05-10T13:01:05;22.60;51.20
68719;DHT22;55696;52.138;5.444;2023-05-10T13:03:32;22.90;51.40
68719;DHT22;55696;52.138;5.444;2023-05-10T13:05:59;22.80;51.40
68719;DHT22;55696;52.138;5.444;2023-05-10T13:08:26;22.60;51.10
68719;DHT22;55696;52.138;5.444;2023-05-10T13:10:53;22.90;51.00
68719;DHT22;55696;52.138;5.444;2023-05-10T13:13:20;22.30;50.90
68719;DHT22;55696;52.138;5.444;2023-05-10T13:15:46;22.00;51.10
68719;DHT22;55696;52.138;5.444;2023-05-10T13:18:13;22.00;51.90
68719;DHT22;55696;52.138;5.444;2023-05-10T13:20:40;21.60;52.00
68719;DHT22;55696;52.138;5.444;2023-05-10T13:23:07;21.50;52.50
68719;DHT22;55696;52.138;5.444;2023-05-10T13:25:33;21.00;52.90
68719;DHT22;55696;52.138;5.444;2023-05-10T13:28:01;20.70;54.20
68719;DHT22;55696;52.138;5.444;2023-05-10T13:30:27;20.40;55.60
68719;DHT22;55696;52.138;5.444;2023-05-10T13:32:55;20.10;56.90
68719;DHT22;55696;52.138;5.444;2023-05-10T13:35:22;20.40;58.30
68719;DHT22;55696;52.138;5.444;2023-05-10T13:37:49;19.40;58.90
68719;DHT22;55696;52.138;5.444;2023-05-10T13:40:16;19.10;59.90
68719;DHT22;55696;52.138;5.444;2023-05-10T13:42:43;18.90;60.60
68719;DHT22;55696;52.138;5.444;2023-05-10T13:45:10;19.10;61.70
68719;DHT22;55696;52.138;5.444;2023-05-10T13:47:39;18.40;62.40
68719;DHT22;55696;52.138;5.444;2023-05-10T13:50:06;18.10;63.10
68719;DHT22;55696;52.138;5.444;2023-05-10T13:52:33;18.20;64.00
68719;DHT22;55696;52.138;5.444;2023-05-10T13:55:00;18.00;64.40
68719;DHT22;55696;52.138;5.444;2023-05-10T13:57:27;18.40;65.20
68719;DHT22;55696;52.138;5.444;2023-05-10T13:59:55;17.90;65.40
68719;DHT22;55696;52.138;5.444;2023-05-10T14:02:23;17.80;65.80
68719;DHT22;55696;52.138;5.444;2023-05-10T14:04:51;17.60;66.00
68719;DHT22;55696;52.138;5.444;2023-05-10T14:07:17;17.90;67.50
68719;DHT22;55696;52.138;5.444;2023-05-10T14:09:44;17.50;66.70
68719;DHT22;55696;52.138;5.444;2023-05-10T14:12:11;17.50;67.00
68719;DHT22;55696;52.138;5.444;2023-05-10T14:14:38;17.40;67.20
68719;DHT22;55696;52.138;5.444;2023-05-10T14:17:05;18.40;67.90
68719;DHT22;55696;52.138;5.444;2023-05-10T14:19:32;17.50;67.40
68719;DHT22;55696;52.138;5.444;2023-05-10T14:22:00;17.60;67.50
68719;DHT22;55696;52.138;5.444;2023-05-10T14:24:27;18.30;67.80
68719;DHT22;55696;52.138;5.444;2023-05-10T14:26:54;18.00;67.80
68719;DHT22;55696;52.138;5.444;2023-05-10T14:29:21;17.60;67.50
68719;DHT22;55696;52.138;5.444;2023-05-10T14:31:49;18.10;68.20
68719;DHT22;55696;52.138;5.444;2023-05-10T14:34:16;17.60;67.90
68719;DHT22;55696;52.138;5.444;2023-05-10T14:36:42;18.50;68.20
68719;DHT22;55696;52.138;5.444;2023-05-10T14:39:09;17.80;67.80
68719;DHT22;55696;52.138;5.444;2023-05-10T14:41:39;17.80;67.70
68719;DHT22;55696;52.138;5.444;2023-05-10T14:44:08;17.80;67.90
68719;DHT22;55696;52.138;5.444;2023-05-10T14:46:34;17.80;68.80
68719;DHT22;55696;52.138;5.444;2023-05-10T14:49:01;18.40;68.20
68719;DHT22;55696;52.138;5.444;2023-05-10T14:51:28;18.40;68.30
68719;DHT22;55696;52.138;5.444;2023-05-10T14:53:55;17.80;68.10
68719;DHT22;55696;52.138;5.444;2023-05-10T14:56:21;18.20;68.10
68719;DHT22;55696;52.138;5.444;2023-05-10T14:58:49;18.30;68.00
68719;DHT22;55696;52.138;5.444;2023-05-10T15:01:16;17.90;68.20
68719;DHT22;55696;52.138;5.444;2023-05-10T15:03:43;17.80;67.80
68719;DHT22;55696;52.138;5.444;2023-05-10T15:06:10;18.00;67.70
68719;DHT22;55696;52.138;5.444;2023-05-10T15:08:37;18.10;67.70
68719;DHT22;55696;52.138;5.444;2023-05-10T15:11:04;18.10;67.50
68719;DHT22;55696;52.138;5.444;2023-05-10T15:13:31;18.80;67.60
68719;DHT22;55696;52.138;5.444;2023-05-10T15:15:57;18.20;67.10
68719;DHT22;55696;52.138;5.444;2023-05-10T15:18:24;18.40;67.20
68719;DHT22;55696;52.138;5.444;2023-05-10T15:20:52;18.60;67.00
68719;DHT22;55696;52.138;5.444;2023-05-10T15:23:19;19.10;67.00
68719;DHT22;55696;52.138;5.444;2023-05-10T15:25:45;18.70;66.60
68719;DHT22;55696;52.138;5.444;2023-05-10T15:28:12;19.10;66.40
68719;DHT22;55696;52.138;5.444;2023-05-10T15:30:39;19.70;66.20
68719;DHT22;55696;52.138;5.444;2023-05-10T15:33:06;19.50;65.50
68719;DHT22;55696;52.138;5.444;2023-05-10T15:35:34;19.80;64.90
68719;DHT22;55696;52.138;5.444;2023-05-10T15:38:02;20.10;64.50
68719;DHT22;55696;52.138;5.444;2023-05-10T15:40:28;20.10;64.20
68719;DHT22;55696;52.138;5.444;2023-05-10T15:42:55;19.90;63.70
68719;DHT22;55696;52.138;5.444;2023-05-10T15:45:22;20.50;64.10
68719;DHT22;55696;52.138;5.444;2023-05-10T15:47:49;19.80;63.70
68719;DHT22;55696;52.138;5.444;2023-05-10T15:50:15;18.40;63.00
68719;DHT22;55696;52.138;5.444;2023-05-10T15:52:43;20.00;63.80
68719;DHT22;55696;52.138;5.444;2023-05-10T15:55:10;19.90;63.70
68719;DHT22;55696;52.138;5.444;2023-05-10T15:57:40;20.10;63.60